West New York, NJ (07093)

7:14 AM EDT on September 30, 2014 (GMT -0400)
WCBS TELEVISION | Change Station
CLOSE
Current Station
Personal Weather Station
Location: New York, NY
Elevation: 13 ft
Nearby Weather Stations

Elev 13 ft 40.77 °N, 73.99 °W | Updated 8 seconds ago

Scattered Clouds
Scattered Clouds
69.3 °F
Feels Like 69.3 °F
N
1.8
Wind Variable Wind from West
Gusts 3.5 mph

Today
High -- | Low -- °F
--% Chance of Precip.
Yesterday
High -- | Low -- °F
Precip. -- in
6:51 AM 6:39 PM
Waxing Crescent, 35% visible
Pressure 29.95 in
Visibility 8.0 miles
Clouds Scattered Clouds 8500 ft
Dew Point 63 °F
Humidity 80%
Rainfall 0.00 in
Snow Depth Not available.
UV 0 out of 12
Pollen 2.90 out of 12
Ozone Good
PM2.5 Moderate
Flu Activity Not available.
METAR KNYC 301051Z 12003KT 8SM SCT085 20/16 A2998 RMK AO2 SLP142 T02000161 $

More Conditions Fewer Conditions

Pressure 29.95 in
Visibility 8.0 miles
Clouds Scattered Clouds 8500 ft
Dew Point 63 °F
Humidity 80%
Rainfall 0.00 in
Snow Depth Not available.
UV 0 out of 12
Pollen 2.90 out of 12
Ozone Good
PM2.5 Moderate
Flu Activity Not available.
METAR KNYC 301051Z 12003KT 8SM SCT085 20/16 A2998 RMK AO2 SLP142 T02000161 $

More Conditions Fewer Conditions

10-Day Weather Forecast

Almanac

Astronomy

Sep. 30, 2014 Rise Set
Actual Time 6:51 AM EDT 6:39 PM EDT
Civil Twilight 6:24 AM EDT 7:07 PM EDT
Nautical Twilight 5:52 AM EDT 7:38 PM EDT
Astronomical Twilight 5:20 AM EDT 8:10 PM EDT
Moon 12:58 PM EDT 11:05 PM EDT
Length of Visible Light 12h 42m
Length of Day
11h 48m
Tomorrow will be 2m 40s shorter.
Waxing Crescent, 35% of the Moon is Illuminated
Today
Waxing Crescent
Oct 1
First Quarter
Oct 8
Full
Oct 15
Last Quarter
Oct 23
New

Today's Extremes

State Highs State Lows

Community

WunderPhotos

Upload Photos

1,757,615 photos uploaded!

WunderBlogs® & News

Nearby

Air Quality

  Air Quality AQ Index Pollutant
Yesterday Moderate
PM2.5
Yesterday Good
OZONE
Current Moderate
PM2.5
Current Good
OZONE
Tuesday Moderate
PM2.5
Tuesday Good
OZONE

Snow Depth

Station Depth Elevation
No new snow has been reported.

Earthquake Activity

City Distance Mag. Time & Date
No recent earthquake activity has been reported nearby.
Minimum magnitude displayed is 2.5.

Coastal Water Temperatures

Place Temperature
Sandy Hook, NJ 69.1 °F
The Battery, NY 69.1 °F
Bergen Point West Reach, NJ 69.1 °F
Kings Point, NY 66.9 °F

Nearby Weather Stations